createdAt,value
2018-10-17T00:02:04.428Z,101231.89
2018-10-17T00:04:34.166Z,101228.30
2018-10-17T00:07:04.005Z,101229.14
2018-10-17T00:09:33.812Z,101224.28
2018-10-17T00:12:03.672Z,101225.12
2018-10-17T00:14:33.473Z,101217.25
2018-10-17T00:17:03.372Z,101216.37
2018-10-17T00:19:33.199Z,101216.30
2018-10-17T00:22:02.992Z,101219.27
2018-10-17T00:24:32.815Z,101227.05
2018-10-17T00:27:02.560Z,101220.81
2018-10-17T00:29:32.303Z,101219.02
2018-10-17T00:32:02.161Z,101217.59
2018-10-17T00:34:31.987Z,101218.81
2018-10-17T00:37:01.791Z,101215.25
2018-10-17T00:39:31.520Z,101212.55
2018-10-17T00:42:01.462Z,101218.16
2018-10-17T00:44:31.263Z,101214.72
2018-10-17T00:47:01.008Z,101218.67
2018-10-17T00:49:30.993Z,101214.45
2018-10-17T00:52:00.767Z,101213.63
2018-10-17T00:54:30.638Z,101214.45
2018-10-17T00:57:00.396Z,101212.64
2018-10-17T00:59:30.123Z,101209.64
2018-10-17T01:01:59.865Z,101202.77
2018-10-17T01:04:29.630Z,101205.02
2018-10-17T01:06:59.379Z,101205.19
2018-10-17T01:09:29.050Z,101201.83
2018-10-17T01:11:58.849Z,101201.91
2018-10-17T01:14:29.237Z,101199.77
2018-10-17T01:16:59.080Z,101195.02
2018-10-17T01:19:28.890Z,101191.97
2018-10-17T01:21:59.990Z,101195.45
2018-10-17T01:24:29.777Z,101193.17
2018-10-17T01:26:59.465Z,101192.70
2018-10-17T01:29:30.021Z,101190.48
2018-10-17T01:31:59.716Z,101191.35
2018-10-17T01:34:29.441Z,101194.36
2018-10-17T01:36:59.313Z,101196.58
2018-10-17T01:39:29.029Z,101193.96
2018-10-17T01:41:58.754Z,101193.02
2018-10-17T01:44:28.525Z,101195.06
2018-10-17T01:46:58.315Z,101193.77
2018-10-17T01:49:27.998Z,101190.52
2018-10-17T01:51:57.906Z,101182.26
2018-10-17T01:54:27.670Z,101185.38
2018-10-17T01:56:57.456Z,101178.09
2018-10-17T01:59:27.763Z,101167.28
2018-10-17T02:01:57.621Z,101171.59
2018-10-17T02:04:27.497Z,101175.17
2018-10-17T02:06:57.274Z,101175.67
2018-10-17T02:09:27.032Z,101174.27
2018-10-17T02:11:56.729Z,101170.95
2018-10-17T02:14:26.917Z,101174.43
2018-10-17T02:16:56.632Z,101164.02
2018-10-17T02:19:26.358Z,101165.16
2018-10-17T02:21:56.056Z,101166.47
2018-10-17T02:24:25.785Z,101164.66
2018-10-17T02:26:55.727Z,101172.53
2018-10-17T02:29:25.489Z,101172.47
2018-10-17T02:31:55.189Z,101167.14
2018-10-17T02:34:25.050Z,101172.25
2018-10-17T02:36:54.956Z,101174.31
2018-10-17T02:39:24.861Z,101168.14
2018-10-17T02:41:54.605Z,101168.50
2018-10-17T02:44:24.404Z,101171.55
2018-10-17T02:46:54.166Z,101170.47
2018-10-17T02:49:23.906Z,101170.73
2018-10-17T02:51:53.636Z,101167.08
2018-10-17T02:54:23.342Z,101169.05
2018-10-17T02:56:53.193Z,101166.88
2018-10-17T02:59:22.932Z,101171.12
2018-10-17T03:01:52.904Z,101170.73
2018-10-17T03:04:22.620Z,101171.12
2018-10-17T03:06:52.306Z,101175.41
2018-10-17T03:09:22.030Z,101172.80
2018-10-17T03:11:51.830Z,101178.99
2018-10-17T03:14:21.577Z,101177.25
2018-10-17T03:16:51.286Z,101178.95
2018-10-17T03:19:21.173Z,101179.33
2018-10-17T03:21:50.753Z,101181.55
2018-10-17T03:24:20.474Z,101180.14
2018-10-17T03:26:50.189Z,101184.14
2018-10-17T03:29:19.980Z,101181.97
2018-10-17T03:31:49.711Z,101187.67
2018-10-17T03:34:19.489Z,101179.81
2018-10-17T03:36:49.170Z,101186.33
2018-10-17T03:39:18.849Z,101185.55
2018-10-17T03:41:48.850Z,101186.31
2018-10-17T03:44:18.569Z,101190.88
2018-10-17T03:46:48.300Z,101189.73
2018-10-17T03:49:18.468Z,101193.05
2018-10-17T03:51:48.137Z,101200.30
2018-10-17T03:54:18.004Z,101194.95
2018-10-17T03:56:47.713Z,101199.69
2018-10-17T03:59:17.655Z,101192.55
2018-10-17T04:01:47.287Z,101203.75
2018-10-17T04:04:17.044Z,101201.95
2018-10-17T04:06:46.782Z,101202.66
2018-10-17T04:09:16.586Z,101209.05
2018-10-17T04:11:46.297Z,101204.27
2018-10-17T04:14:16.011Z,101202.47
2018-10-17T04:16:45.761Z,101202.97
2018-10-17T04:19:15.569Z,101196.89
2018-10-17T04:21:45.288Z,101200.85
2018-10-17T04:24:15.057Z,101200.05
2018-10-17T04:26:44.785Z,101211.66
2018-10-17T04:29:15.269Z,101205.48
2018-10-17T04:31:44.949Z,101208.76
2018-10-17T04:34:14.646Z,101205.66
2018-10-17T04:36:44.350Z,101208.56
2018-10-17T04:39:14.042Z,101209.13
2018-10-17T04:41:43.816Z,101206.89
2018-10-17T04:44:13.514Z,101210.02
2018-10-17T04:46:43.359Z,101202.19
2018-10-17T04:49:13.202Z,101207.77
2018-10-17T04:51:42.790Z,101205.95
2018-10-17T04:54:12.526Z,101205.45
2018-10-17T04:56:42.370Z,101205.36
2018-10-17T04:59:12.204Z,101203.07
2018-10-17T05:01:41.897Z,101200.45
2018-10-17T05:04:11.645Z,101204.30
2018-10-17T05:06:41.379Z,101204.22
2018-10-17T05:09:11.632Z,101205.97
2018-10-17T05:11:41.521Z,101203.79
2018-10-17T05:14:11.282Z,101199.07
2018-10-17T05:16:41.115Z,101207.25
2018-10-17T05:19:10.884Z,101207.69
2018-10-17T05:21:40.525Z,101206.73
2018-10-17T05:24:10.337Z,101203.28
2018-10-17T05:26:40.059Z,101206.66
2018-10-17T05:29:10.014Z,101205.30
2018-10-17T05:31:39.705Z,101205.28
2018-10-17T05:34:09.429Z,101207.83
2018-10-17T05:36:39.193Z,101213.45
2018-10-17T05:39:09.673Z,101216.69
2018-10-17T05:41:43.578Z,101216.52
2018-10-17T05:44:13.383Z,101211.30
2018-10-17T05:46:43.205Z,101220.48
2018-10-17T05:49:13.074Z,101210.56
2018-10-17T05:51:42.764Z,101213.11
2018-10-17T05:54:12.508Z,101213.41
2018-10-17T05:56:42.281Z,101214.84
2018-10-17T05:59:12.120Z,101212.66
2018-10-17T06:01:41.809Z,101218.24
2018-10-17T06:04:11.787Z,101215.63
2018-10-17T06:06:41.520Z,101225.69
2018-10-17T06:09:12.443Z,101229.72
2018-10-17T06:11:42.420Z,101231.09
2018-10-17T06:14:16.926Z,101231.17
2018-10-17T06:16:47.407Z,101242.86
2018-10-17T06:19:17.166Z,101246.27
2018-10-17T06:21:46.965Z,101252.75
2018-10-17T06:24:16.970Z,101254.45
2018-10-17T06:26:46.752Z,101268.06
2018-10-17T06:29:17.094Z,101265.45
2018-10-17T06:31:46.985Z,101259.69
2018-10-17T06:34:16.874Z,101257.77
2018-10-17T06:36:46.510Z,101253.91
2018-10-17T06:39:16.318Z,101259.50
2018-10-17T06:41:46.098Z,101262.55
2018-10-17T06:44:15.889Z,101261.61
2018-10-17T06:46:45.670Z,101262.11
2018-10-17T06:49:15.585Z,101262.11
2018-10-17T06:51:45.285Z,101269.44
2018-10-17T06:54:15.184Z,101265.09
2018-10-17T06:56:45.063Z,101269.98
2018-10-17T06:59:14.909Z,101266.33
2018-10-17T07:01:44.686Z,101264.33
2018-10-17T07:04:14.432Z,101263.11
2018-10-17T07:06:44.232Z,101257.27
2018-10-17T07:09:14.081Z,101260.76
2018-10-17T07:11:43.922Z,101267.27
2018-10-17T07:14:13.720Z,101264.78
2018-10-17T07:16:43.493Z,101259.85
2018-10-17T07:19:13.397Z,101266.45
2018-10-17T07:21:43.224Z,101267.95
2018-10-17T07:24:12.958Z,101271.14
2018-10-17T07:26:42.759Z,101265.86
2018-10-17T07:29:12.473Z,101268.55
2018-10-17T07:31:42.338Z,101269.39
2018-10-17T07:34:12.067Z,101272.09
2018-10-17T07:36:41.868Z,101274.37
2018-10-17T07:39:11.717Z,101273.00
2018-10-17T07:41:41.439Z,101276.94
2018-10-17T07:44:11.222Z,101274.89
2018-10-17T07:46:41.068Z,101274.98
2018-10-17T07:49:10.992Z,101276.27
2018-10-17T07:51:40.739Z,101272.77
2018-10-17T07:54:10.554Z,101282.88
2018-10-17T07:56:40.367Z,101277.24
2018-10-17T07:59:10.233Z,101279.06
2018-10-17T08:01:39.957Z,101282.09
2018-10-17T08:04:09.731Z,101280.39
2018-10-17T08:06:39.612Z,101277.83
2018-10-17T08:09:11.412Z,101277.02
2018-10-17T08:11:41.336Z,101277.50
2018-10-17T08:14:11.372Z,101283.18
2018-10-17T08:16:41.254Z,101280.13
2018-10-17T08:19:11.003Z,101283.17
2018-10-17T08:21:40.770Z,101283.20
2018-10-17T08:24:10.694Z,101274.02
2018-10-17T08:26:40.527Z,101276.19
2018-10-17T08:29:10.472Z,101280.55
2018-10-17T08:31:40.222Z,101272.27
2018-10-17T08:34:09.998Z,101278.38
2018-10-17T08:36:39.961Z,101275.77
2018-10-17T08:39:10.714Z,101279.27
2018-10-17T08:41:40.566Z,101277.09
2018-10-17T08:44:10.529Z,101275.30
2018-10-17T08:46:40.248Z,101273.00
2018-10-17T08:49:10.097Z,101272.13
2018-10-17T08:51:39.960Z,101274.27
2018-10-17T08:54:09.743Z,101269.45
2018-10-17T08:56:39.767Z,101277.63
2018-10-17T08:59:09.601Z,101280.66
2018-10-17T09:01:39.548Z,101281.10
2018-10-17T09:04:09.330Z,101277.95
2018-10-17T09:06:39.165Z,101283.92
2018-10-17T09:09:13.644Z,101281.11
2018-10-17T09:11:43.516Z,101278.17
2018-10-17T09:14:13.407Z,101288.80
2018-10-17T09:16:43.693Z,101289.66
2018-10-17T09:19:13.648Z,101285.27
2018-10-17T09:21:43.899Z,101284.12
2018-10-17T09:24:13.448Z,101286.64
2018-10-17T09:26:43.230Z,101284.87
2018-10-17T09:29:13.047Z,101283.87
2018-10-17T09:31:42.842Z,101286.43
2018-10-17T09:34:12.702Z,101283.56
2018-10-17T09:36:42.449Z,101289.32
2018-10-17T09:39:12.780Z,101284.27
2018-10-17T09:41:42.519Z,101286.62
2018-10-17T09:44:12.330Z,101286.27
2018-10-17T09:46:42.110Z,101287.95
2018-10-17T09:49:11.941Z,101291.32
2018-10-17T09:51:41.701Z,101289.12
2018-10-17T09:54:11.651Z,101284.48
2018-10-17T09:56:41.304Z,101282.48
2018-10-17T09:59:11.122Z,101284.56
2018-10-17T10:01:46.989Z,101284.46
2018-10-17T10:04:16.895Z,101285.05
2018-10-17T10:06:46.857Z,101289.70
2018-10-17T10:09:16.665Z,101280.95
2018-10-17T10:11:46.589Z,101279.91
2018-10-17T10:14:16.323Z,101278.96
2018-10-17T10:16:46.113Z,101277.50
2018-10-17T10:19:15.873Z,101270.68
2018-10-17T10:21:45.661Z,101275.00
2018-10-17T10:24:15.561Z,101275.34
2018-10-17T10:26:45.335Z,101272.72
2018-10-17T10:29:15.194Z,101271.03
2018-10-17T10:31:44.973Z,101270.64
2018-10-17T10:34:14.693Z,101268.39
2018-10-17T10:36:44.443Z,101273.09
2018-10-17T10:39:14.313Z,101266.70
2018-10-17T10:41:44.190Z,101264.26
2018-10-17T10:44:14.116Z,101264.39
2018-10-17T10:46:44.069Z,101262.27
2018-10-17T10:49:13.901Z,101264.84
2018-10-17T10:51:43.850Z,101261.88
2018-10-17T10:54:13.734Z,101252.17
2018-10-17T10:56:43.515Z,101254.45
2018-10-17T10:59:13.294Z,101246.69
2018-10-17T11:01:43.026Z,101247.73
2018-10-17T11:04:12.953Z,101244.45
2018-10-17T11:06:42.915Z,101243.79
2018-10-17T11:09:12.779Z,101239.82
2018-10-17T11:11:42.553Z,101240.84
2018-10-17T11:14:12.406Z,101231.95
2018-10-17T11:16:42.097Z,101229.66
2018-10-17T11:19:11.860Z,101221.98
2018-10-17T11:21:41.734Z,101224.52
2018-10-17T11:24:11.454Z,101227.11
2018-10-17T11:26:41.339Z,101228.38
2018-10-17T11:29:11.476Z,101227.02
2018-10-17T11:31:41.312Z,101222.74
2018-10-17T11:34:11.202Z,101226.66
2018-10-17T11:36:40.947Z,101222.91
2018-10-17T11:39:11.634Z,101224.55
2018-10-17T11:41:41.866Z,101222.17
2018-10-17T11:44:11.584Z,101219.51
2018-10-17T11:46:41.562Z,101216.23
2018-10-17T11:49:11.433Z,101213.48
2018-10-17T11:51:41.209Z,101208.38
2018-10-17T11:54:11.067Z,101211.09
2018-10-17T11:56:40.892Z,101206.39
2018-10-17T11:59:10.749Z,101203.67
2018-10-17T12:01:40.460Z,101203.23
2018-10-17T12:04:10.543Z,101199.30
2018-10-17T12:06:40.215Z,101200.48
2018-10-17T12:09:10.601Z,101197.30
2018-10-17T12:11:40.752Z,101195.02
2018-10-17T12:14:10.525Z,101190.33
2018-10-17T12:16:40.305Z,101199.44
2018-10-17T12:19:10.298Z,101191.28
2018-10-17T12:21:41.378Z,101182.73
2018-10-17T12:24:11.342Z,101180.81
2018-10-17T12:26:41.041Z,101173.98
2018-10-17T12:29:10.837Z,101175.24
2018-10-17T12:31:40.601Z,101180.72
2018-10-17T12:34:10.393Z,101175.95
2018-10-17T12:36:40.173Z,101176.23
2018-10-17T12:39:12.726Z,101169.74
2018-10-17T12:41:43.170Z,101172.67
2018-10-17T12:44:12.917Z,101172.80
2018-10-17T12:46:42.586Z,101169.08
2018-10-17T12:49:12.537Z,101169.25
2018-10-17T12:51:42.298Z,101168.62
2018-10-17T12:54:12.142Z,101170.00
2018-10-17T12:56:42.007Z,101172.28
2018-10-17T12:59:11.865Z,101170.90
2018-10-17T13:01:41.479Z,101169.78
2018-10-17T13:04:11.321Z,101170.23
2018-10-17T13:06:41.069Z,101174.31
2018-10-17T13:09:12.202Z,101167.22
2018-10-17T13:11:42.348Z,101165.67
2018-10-17T13:14:12.219Z,101160.88
2018-10-17T13:16:42.139Z,101171.03
2018-10-17T13:19:11.987Z,101157.25
2018-10-17T13:21:41.762Z,101152.59
2018-10-17T13:24:11.581Z,101153.94
2018-10-17T13:26:41.345Z,101152.69
2018-10-17T13:29:11.188Z,101151.45
2018-10-17T13:31:40.937Z,101148.40
2018-10-17T13:34:10.629Z,101149.34
2018-10-17T13:36:40.442Z,101142.73
2018-10-17T13:39:12.555Z,101143.42
2018-10-17T13:41:42.385Z,101145.97
2018-10-17T13:44:12.131Z,101141.94
2018-10-17T13:46:42.178Z,101137.75
2018-10-17T13:49:12.040Z,101140.57
2018-10-17T13:51:41.642Z,101142.34
2018-10-17T13:54:11.529Z,101139.97
2018-10-17T13:56:41.302Z,101141.64
2018-10-17T13:59:11.181Z,101131.89
2018-10-17T14:01:40.879Z,101139.86
2018-10-17T14:04:10.742Z,101140.05
2018-10-17T14:06:40.353Z,101133.23
2018-10-17T14:09:11.080Z,101141.01
2018-10-17T14:11:40.788Z,101138.25
2018-10-17T14:14:11.116Z,101143.35
2018-10-17T14:16:40.876Z,101136.77
2018-10-17T14:19:10.841Z,101137.67
2018-10-17T14:21:40.630Z,101140.16
2018-10-17T14:24:10.522Z,101133.05
2018-10-17T14:26:40.453Z,101130.51
2018-10-17T14:29:10.210Z,101125.02
2018-10-17T14:31:40.142Z,101128.56
2018-10-17T14:34:09.950Z,101127.52
2018-10-17T14:36:39.893Z,101122.89
2018-10-17T14:39:12.442Z,101124.14
2018-10-17T14:41:42.101Z,101118.89
2018-10-17T14:44:11.874Z,101124.23
2018-10-17T14:46:41.753Z,101120.78
2018-10-17T14:49:11.641Z,101126.77
2018-10-17T14:51:41.454Z,101123.95
2018-10-17T14:54:11.323Z,101128.36
2018-10-17T14:56:41.097Z,101129.59
2018-10-17T14:59:10.900Z,101132.97
2018-10-17T15:01:41.562Z,101121.07
2018-10-17T15:04:11.446Z,101128.75
2018-10-17T15:06:41.362Z,101127.30
2018-10-17T15:09:11.444Z,101127.02
2018-10-17T15:11:41.658Z,101132.95
2018-10-17T15:14:11.429Z,101134.59
2018-10-17T15:16:41.229Z,101132.64
2018-10-17T15:19:11.337Z,101133.53
2018-10-17T15:21:41.110Z,101133.66
2018-10-17T15:24:11.133Z,101134.29
2018-10-17T15:26:40.831Z,101137.58
2018-10-17T15:29:10.587Z,101136.10
2018-10-17T15:31:40.571Z,101134.03
2018-10-17T15:34:10.380Z,101131.66
2018-10-17T15:36:40.299Z,101141.61
2018-10-17T15:39:11.342Z,101139.33
2018-10-17T15:41:41.098Z,101135.64
2018-10-17T15:44:10.861Z,101150.16
2018-10-17T15:46:40.619Z,101145.55
2018-10-17T15:49:10.722Z,101146.73
2018-10-17T15:51:40.591Z,101148.78
2018-10-17T15:54:10.550Z,101150.75
2018-10-17T15:56:40.617Z,101160.22
2018-10-17T15:59:10.455Z,101155.78
2018-10-17T16:01:40.356Z,101152.09
2018-10-17T16:04:10.306Z,101152.56
2018-10-17T16:06:40.223Z,101147.08
2018-10-17T16:09:12.656Z,101153.77
2018-10-17T16:11:42.648Z,101150.89
2018-10-17T16:14:12.590Z,101152.30
2018-10-17T16:16:42.314Z,101160.73
2018-10-17T16:19:12.133Z,101158.70
2018-10-17T16:21:41.973Z,101157.12
2018-10-17T16:24:11.962Z,101157.40
2018-10-17T16:26:41.749Z,101163.45
2018-10-17T16:29:11.449Z,101162.01
2018-10-17T16:31:41.289Z,101165.34
2018-10-17T16:34:11.178Z,101165.20
2018-10-17T16:36:41.124Z,101173.34
2018-10-17T16:39:12.199Z,101179.09
2018-10-17T16:41:42.222Z,101174.90
2018-10-17T16:44:12.077Z,101182.05
2018-10-17T16:46:41.854Z,101185.67
2018-10-17T16:49:11.662Z,101187.44
2018-10-17T16:51:41.466Z,101188.44
2018-10-17T16:54:11.396Z,101192.91
2018-10-17T16:56:41.146Z,101193.08
2018-10-17T16:59:10.904Z,101196.69
2018-10-17T17:01:40.789Z,101197.23
2018-10-17T17:04:10.599Z,101203.06
2018-10-17T17:06:40.501Z,101208.39
2018-10-17T17:09:11.252Z,101206.22
2018-10-17T17:11:41.154Z,101209.70
2018-10-17T17:14:10.917Z,101217.20
2018-10-17T17:16:40.652Z,101218.62
2018-10-17T17:19:10.410Z,101216.09
2018-10-17T17:21:41.250Z,101215.28
2018-10-17T17:24:11.382Z,101214.89
2018-10-17T17:26:41.006Z,101214.08
2018-10-17T17:29:10.763Z,101223.30
2018-10-17T17:31:40.557Z,101221.98
2018-10-17T17:34:10.467Z,101216.76
2018-10-17T17:36:40.296Z,101220.72
2018-10-17T17:39:10.738Z,101224.59
2018-10-17T17:41:40.519Z,101226.80
2018-10-17T17:44:10.250Z,101225.94
2018-10-17T17:46:40.047Z,101231.20
2018-10-17T17:49:09.857Z,101234.69
2018-10-17T17:51:39.781Z,101236.45
2018-10-17T17:54:09.453Z,101242.98
2018-10-17T17:56:39.329Z,101239.95
2018-10-17T17:59:09.092Z,101247.80
2018-10-17T18:01:38.893Z,101244.32
2018-10-17T18:04:08.723Z,101244.73
2018-10-17T18:06:38.643Z,101252.16
2018-10-17T18:09:11.300Z,101256.54
2018-10-17T18:11:41.174Z,101256.11
2018-10-17T18:14:10.944Z,101254.80
2018-10-17T18:16:40.731Z,101259.16
2018-10-17T18:19:10.776Z,101255.22
2018-10-17T18:21:40.558Z,101256.95
2018-10-17T18:24:10.334Z,101265.68
2018-10-17T18:26:40.183Z,101264.37
2018-10-17T18:29:10.171Z,101271.34
2018-10-17T18:31:40.023Z,101271.77
2018-10-17T18:34:09.917Z,101273.52
2018-10-17T18:36:39.761Z,101277.87
2018-10-17T18:39:09.936Z,101277.92
2018-10-17T18:41:39.854Z,101277.91
2018-10-17T18:44:09.658Z,101284.05
2018-10-17T18:46:39.528Z,101283.58
2018-10-17T18:49:09.327Z,101291.02
2018-10-17T18:51:39.082Z,101290.14
2018-10-17T18:54:08.978Z,101294.03
2018-10-17T18:56:38.786Z,101295.78
2018-10-17T18:59:08.680Z,101299.30
2018-10-17T19:01:38.452Z,101300.16
2018-10-17T19:04:08.466Z,101304.52
2018-10-17T19:06:38.232Z,101302.34
2018-10-17T19:09:12.785Z,101304.98
2018-10-17T19:11:42.656Z,101307.66
2018-10-17T19:14:12.485Z,101310.28
2018-10-17T19:16:42.233Z,101312.89
2018-10-17T19:19:12.297Z,101312.86
2018-10-17T19:21:42.492Z,101313.30
2018-10-17T19:24:12.269Z,101321.55
2018-10-17T19:26:42.731Z,101323.73
2018-10-17T19:29:13.430Z,101322.41
2018-10-17T19:31:43.509Z,101330.70
2018-10-17T19:34:13.342Z,101325.89
2018-10-17T19:36:43.079Z,101326.78
2018-10-17T19:39:13.865Z,101327.66
2018-10-17T19:41:43.795Z,101321.97
2018-10-17T19:44:13.611Z,101328.95
2018-10-17T19:46:43.539Z,101332.86
2018-10-17T19:49:13.425Z,101327.16
2018-10-17T19:51:43.182Z,101330.20
2018-10-17T19:54:12.910Z,101335.89
2018-10-17T19:56:42.776Z,101337.20
2018-10-17T19:59:12.562Z,101332.35
2018-10-17T20:01:42.339Z,101334.95
2018-10-17T20:04:12.180Z,101336.27
2018-10-17T20:06:41.990Z,101334.48
2018-10-17T20:10:14.770Z,101341.45
2018-10-17T20:12:44.915Z,101333.59
2018-10-17T20:15:14.989Z,101341.45
2018-10-17T20:17:45.017Z,101338.81
2018-10-17T20:20:15.676Z,101340.12
2018-10-17T20:22:45.473Z,101343.11
2018-10-17T20:25:15.362Z,101349.22
2018-10-17T20:27:45.104Z,101354.00
2018-10-17T20:30:14.870Z,101355.73
2018-10-17T20:32:44.593Z,101355.30
2018-10-17T20:35:15.199Z,101354.43
2018-10-17T20:37:44.879Z,101350.95
2018-10-17T20:40:14.660Z,101349.70
2018-10-17T20:42:44.640Z,101352.73
2018-10-17T20:45:15.233Z,101355.75
2018-10-17T20:47:45.469Z,101354.12
2018-10-17T20:50:15.361Z,101354.52
2018-10-17T20:52:45.066Z,101361.41
2018-10-17T20:55:15.715Z,101363.58
2018-10-17T20:57:46.297Z,101359.57
2018-10-17T21:00:16.102Z,101365.19
2018-10-17T21:02:45.851Z,101364.27
2018-10-17T21:05:16.804Z,101364.65
2018-10-17T21:07:46.577Z,101366.36
2018-10-17T21:10:16.353Z,101372.44
2018-10-17T21:12:46.092Z,101377.61
2018-10-17T21:15:15.848Z,101376.70
2018-10-17T21:17:45.674Z,101381.00
2018-10-17T21:20:15.515Z,101373.63
2018-10-17T21:22:45.240Z,101371.81
2018-10-17T21:25:14.964Z,101369.17
2018-10-17T21:27:44.702Z,101374.36
2018-10-17T21:30:14.443Z,101372.59
2018-10-17T21:32:44.252Z,101366.39
2018-10-17T21:35:14.169Z,101370.30
2018-10-17T21:37:43.962Z,101368.06
2018-10-17T21:40:13.826Z,101361.48
2018-10-17T21:42:43.737Z,101370.13
2018-10-17T21:45:13.447Z,101374.00
2018-10-17T21:47:43.374Z,101377.02
2018-10-17T21:50:13.148Z,101377.92
2018-10-17T21:52:42.987Z,101378.36
2018-10-17T21:55:12.696Z,101379.19
2018-10-17T21:57:42.532Z,101377.02
2018-10-17T22:00:12.376Z,101379.98
2018-10-17T22:02:42.121Z,101376.89
2018-10-17T22:05:11.983Z,101373.33
2018-10-17T22:07:41.905Z,101373.24
2018-10-17T22:10:11.607Z,101376.67
2018-10-17T22:12:41.489Z,101374.02
2018-10-17T22:15:11.670Z,101375.33
2018-10-17T22:17:41.505Z,101375.33
2018-10-17T22:20:11.403Z,101373.97
2018-10-17T22:22:41.285Z,101373.92
2018-10-17T22:25:11.190Z,101382.55
2018-10-17T22:27:40.989Z,101379.83
2018-10-17T22:30:10.715Z,101379.79
2018-10-17T22:32:40.815Z,101384.91
2018-10-17T22:35:10.593Z,101381.52
2018-10-17T22:37:40.373Z,101386.75
2018-10-17T22:40:10.061Z,101387.18
2018-10-17T22:42:39.988Z,101389.87
2018-10-17T22:45:09.775Z,101384.81
2018-10-17T22:47:39.505Z,101387.73
2018-10-17T22:50:09.994Z,101394.42
2018-10-17T22:52:39.998Z,101394.39
2018-10-17T22:55:09.781Z,101392.60
2018-10-17T22:57:39.529Z,101397.36
2018-10-17T23:00:10.114Z,101396.44
2018-10-17T23:02:40.309Z,101402.87
2018-10-17T23:05:10.083Z,101400.96
2018-10-17T23:07:39.800Z,101404.62
2018-10-17T23:10:09.609Z,101401.34
2018-10-17T23:12:39.433Z,101396.47
2018-10-17T23:15:14.689Z,101396.80
2018-10-17T23:17:44.543Z,101398.78
2018-10-17T23:20:14.364Z,101398.23
2018-10-17T23:22:44.055Z,101396.00
2018-10-17T23:25:13.981Z,101400.02
2018-10-17T23:27:43.752Z,101393.98
2018-10-17T23:30:13.649Z,101397.84
2018-10-17T23:32:43.365Z,101395.63
2018-10-17T23:35:13.125Z,101400.02
2018-10-17T23:37:42.817Z,101399.97
2018-10-17T23:40:12.587Z,101404.59
2018-10-17T23:42:42.469Z,101403.03
2018-10-17T23:45:12.141Z,101404.59
2018-10-17T23:47:41.889Z,101410.55
2018-10-17T23:50:11.662Z,101410.37
2018-10-17T23:52:41.285Z,101411.62
2018-10-17T23:55:11.031Z,101409.38
2018-10-17T23:57:40.839Z,101408.45
